createdAt,value
2023-02-28T00:00:43.689Z,0.00
2023-02-28T00:01:43.689Z,0.00
2023-02-28T00:02:43.774Z,0.00
2023-02-28T00:03:43.721Z,0.00
2023-02-28T00:04:43.675Z,0.00
2023-02-28T00:05:43.661Z,0.00
2023-02-28T00:06:43.667Z,0.00
2023-02-28T00:07:43.674Z,0.00
2023-02-28T00:08:43.670Z,0.00
2023-02-28T00:09:43.636Z,0.00
2023-02-28T00:10:43.649Z,0.00
2023-02-28T00:11:43.633Z,0.00
2023-02-28T00:12:43.622Z,0.00
2023-02-28T00:13:43.612Z,0.00
2023-02-28T00:14:43.622Z,0.00
2023-02-28T00:15:43.630Z,0.00
2023-02-28T00:16:43.643Z,0.00
2023-02-28T00:17:43.604Z,0.00
2023-02-28T00:18:43.590Z,0.00
2023-02-28T00:19:43.581Z,0.00
2023-02-28T00:20:43.618Z,0.00
2023-02-28T00:21:43.611Z,0.00
2023-02-28T00:22:43.571Z,0.00
2023-02-28T00:23:43.575Z,0.00
2023-02-28T00:24:43.553Z,0.00
2023-02-28T00:25:43.557Z,0.00
2023-02-28T00:26:43.556Z,0.00
2023-02-28T00:27:43.574Z,0.00
2023-02-28T00:28:43.555Z,0.00
2023-02-28T00:29:43.564Z,0.00
2023-02-28T00:30:43.558Z,0.00
2023-02-28T00:31:43.521Z,0.00
2023-02-28T00:32:43.512Z,0.00
2023-02-28T00:33:43.518Z,0.00
2023-02-28T00:34:43.505Z,0.00
2023-02-28T00:35:43.541Z,0.00
2023-02-28T00:36:43.497Z,0.00
2023-02-28T00:37:43.543Z,0.00
2023-02-28T00:38:43.497Z,0.00
2023-02-28T00:39:43.466Z,0.00
2023-02-28T00:40:43.482Z,0.00
2023-02-28T00:41:43.505Z,0.00
2023-02-28T00:42:43.451Z,0.00
2023-02-28T00:43:43.456Z,0.00
2023-02-28T00:44:43.477Z,0.00
2023-02-28T00:45:43.447Z,0.00
2023-02-28T00:46:43.438Z,0.00
2023-02-28T00:47:43.436Z,0.00
2023-02-28T00:48:43.450Z,0.00
2023-02-28T00:49:43.421Z,0.00
2023-02-28T00:50:43.428Z,0.00
2023-02-28T00:51:43.422Z,0.00
2023-02-28T00:52:43.412Z,0.00
2023-02-28T00:53:43.394Z,0.00
2023-02-28T00:54:43.399Z,0.00
2023-02-28T00:55:43.406Z,0.00
2023-02-28T00:56:43.393Z,0.00
2023-02-28T00:57:43.393Z,0.00
2023-02-28T00:58:43.394Z,0.00
2023-02-28T00:59:43.366Z,0.00
2023-02-28T01:00:43.350Z,0.00
2023-02-28T01:01:43.439Z,0.00
2023-02-28T01:02:43.356Z,0.00
2023-02-28T01:03:43.346Z,0.00
2023-02-28T01:04:43.366Z,0.00
2023-02-28T01:05:43.340Z,0.00
2023-02-28T01:06:43.339Z,0.00
2023-02-28T01:07:43.350Z,0.00
2023-02-28T01:08:43.332Z,0.00
2023-02-28T01:09:43.321Z,0.00
2023-02-28T01:10:43.300Z,0.00
2023-02-28T01:11:43.297Z,0.00
2023-02-28T01:12:43.295Z,0.00
2023-02-28T01:13:43.309Z,0.00
2023-02-28T01:14:43.268Z,0.00
2023-02-28T01:15:43.281Z,0.00
2023-02-28T01:16:43.256Z,0.00
2023-02-28T01:17:43.241Z,0.00
2023-02-28T01:18:43.245Z,0.00
2023-02-28T01:19:43.257Z,0.00
2023-02-28T01:20:43.241Z,0.00
2023-02-28T01:21:43.230Z,0.00
2023-02-28T01:22:43.234Z,0.00
2023-02-28T01:23:43.215Z,0.00
2023-02-28T01:24:43.214Z,0.00
2023-02-28T01:25:43.276Z,0.00
2023-02-28T01:26:43.206Z,0.00
2023-02-28T01:27:43.205Z,0.00
2023-02-28T01:28:43.179Z,0.00
2023-02-28T01:29:43.223Z,0.00
2023-02-28T01:30:43.268Z,0.00
2023-02-28T01:31:43.160Z,0.00
2023-02-28T01:32:43.157Z,0.00
2023-02-28T01:33:43.187Z,0.00
2023-02-28T01:34:43.148Z,0.00
2023-02-28T01:35:43.165Z,0.00
2023-02-28T01:36:43.158Z,0.00
2023-02-28T01:37:43.131Z,0.00
2023-02-28T01:38:43.127Z,0.00
2023-02-28T01:39:43.133Z,0.00
2023-02-28T01:40:43.109Z,0.00
2023-02-28T01:41:43.095Z,0.00
2023-02-28T01:42:43.105Z,0.00
2023-02-28T01:43:43.089Z,0.00
2023-02-28T01:44:43.090Z,0.00
2023-02-28T01:45:43.093Z,0.00
2023-02-28T01:46:43.116Z,0.00
2023-02-28T01:47:43.093Z,0.00
2023-02-28T01:48:43.058Z,0.00
2023-02-28T01:49:43.081Z,0.00
2023-02-28T01:50:43.053Z,0.00
2023-02-28T01:51:43.059Z,0.00
2023-02-28T01:52:43.026Z,0.00
2023-02-28T01:53:43.034Z,0.00
2023-02-28T01:54:43.066Z,0.00
2023-02-28T01:55:43.051Z,0.00
2023-02-28T01:56:43.002Z,0.00
2023-02-28T01:57:43.027Z,0.00
2023-02-28T01:58:43.019Z,0.00
2023-02-28T01:59:43.010Z,0.00
2023-02-28T02:00:42.997Z,0.00
2023-02-28T02:01:43.019Z,0.00
2023-02-28T02:02:43.051Z,0.00
2023-02-28T02:03:42.973Z,0.00
2023-02-28T02:04:42.981Z,0.00
2023-02-28T02:05:42.951Z,0.00
2023-02-28T02:06:42.962Z,0.00
2023-02-28T02:07:42.940Z,0.00
2023-02-28T02:08:42.931Z,0.00
2023-02-28T02:09:42.956Z,0.00
2023-02-28T02:10:42.947Z,0.00
2023-02-28T02:11:42.912Z,0.00
2023-02-28T02:12:42.910Z,0.00
2023-02-28T02:13:42.916Z,0.00
2023-02-28T02:14:42.904Z,0.00
2023-02-28T02:15:42.920Z,0.00
2023-02-28T02:16:42.921Z,0.00
2023-02-28T02:17:42.884Z,0.00
2023-02-28T02:18:42.877Z,0.00
2023-02-28T02:19:42.870Z,0.00
2023-02-28T02:20:42.929Z,0.00
2023-02-28T02:21:42.845Z,0.00
2023-02-28T02:22:42.877Z,0.00
2023-02-28T02:23:42.838Z,0.00
2023-02-28T02:24:42.853Z,0.00
2023-02-28T02:25:42.836Z,0.00
2023-02-28T02:26:42.817Z,0.00
2023-02-28T02:27:42.848Z,0.00
2023-02-28T02:28:42.809Z,0.00
2023-02-28T02:29:42.798Z,0.00
2023-02-28T02:30:42.798Z,0.00
2023-02-28T02:31:42.883Z,0.00
2023-02-28T02:32:42.790Z,0.00
2023-02-28T02:33:42.789Z,0.00
2023-02-28T02:34:42.765Z,0.00
2023-02-28T02:35:42.797Z,0.00
2023-02-28T02:36:42.795Z,0.00
2023-02-28T02:37:42.760Z,0.00
2023-02-28T02:38:42.768Z,0.00
2023-02-28T02:39:42.734Z,0.00
2023-02-28T02:40:42.735Z,0.00
2023-02-28T02:41:42.722Z,0.00
2023-02-28T02:42:42.724Z,0.00
2023-02-28T02:43:42.760Z,0.00
2023-02-28T02:44:42.725Z,0.00
2023-02-28T02:45:42.729Z,0.00
2023-02-28T02:46:42.722Z,0.00
2023-02-28T02:47:42.684Z,0.00
2023-02-28T02:48:42.696Z,0.00
2023-02-28T02:49:42.694Z,0.00
2023-02-28T02:50:42.679Z,0.00
2023-02-28T02:51:42.670Z,0.00
2023-02-28T02:52:42.717Z,0.00
2023-02-28T02:53:42.677Z,0.00
2023-02-28T02:54:42.649Z,0.00
2023-02-28T02:55:42.646Z,0.00
2023-02-28T02:56:42.653Z,0.00
2023-02-28T02:57:42.645Z,0.00
2023-02-28T02:58:42.644Z,0.00
2023-02-28T02:59:42.638Z,0.00
2023-02-28T03:00:42.649Z,0.00
2023-02-28T03:01:42.614Z,0.00
2023-02-28T03:02:42.623Z,0.00
2023-02-28T03:03:42.658Z,0.00
2023-02-28T03:04:42.596Z,0.00
2023-02-28T03:05:42.596Z,0.00
2023-02-28T03:06:42.575Z,0.00
2023-02-28T03:07:42.576Z,0.00
2023-02-28T03:08:42.563Z,0.00
2023-02-28T03:09:42.575Z,0.00
2023-02-28T03:10:42.561Z,0.00
2023-02-28T03:11:42.540Z,0.00
2023-02-28T03:12:42.571Z,0.00
2023-02-28T03:13:42.548Z,0.00
2023-02-28T03:14:42.529Z,0.00
2023-02-28T03:15:42.517Z,0.00
2023-02-28T03:16:42.544Z,0.00
2023-02-28T03:17:42.503Z,0.00
2023-02-28T03:18:42.502Z,0.00
2023-02-28T03:19:42.495Z,0.00
2023-02-28T03:20:42.485Z,0.00
2023-02-28T03:21:42.474Z,0.00
2023-02-28T03:22:42.492Z,0.00
2023-02-28T03:23:42.468Z,0.00
2023-02-28T03:24:42.472Z,0.00
2023-02-28T03:25:42.457Z,0.00
2023-02-28T03:26:42.458Z,0.00
2023-02-28T03:27:42.458Z,0.00
2023-02-28T03:28:42.434Z,0.00
2023-02-28T03:29:42.428Z,0.00
2023-02-28T03:30:42.427Z,0.00
2023-02-28T03:31:42.489Z,0.00
2023-02-28T03:32:42.412Z,0.00
2023-02-28T03:33:42.427Z,0.00
2023-02-28T03:34:42.396Z,0.00
2023-02-28T03:35:42.452Z,0.00
2023-02-28T03:36:42.393Z,0.00
2023-02-28T03:37:42.379Z,0.00
2023-02-28T03:38:42.380Z,0.00
2023-02-28T03:39:42.379Z,0.00
2023-02-28T03:40:42.363Z,0.00
2023-02-28T03:41:42.352Z,0.00
2023-02-28T03:42:42.362Z,0.00
2023-02-28T03:43:42.343Z,0.00
2023-02-28T03:44:42.361Z,0.00
2023-02-28T03:45:42.379Z,0.00
2023-02-28T03:46:42.323Z,0.00
2023-02-28T03:47:42.315Z,0.00
2023-02-28T03:48:42.315Z,0.00
2023-02-28T03:49:42.298Z,0.00
2023-02-28T03:50:42.364Z,0.00
2023-02-28T03:51:42.293Z,0.00
2023-02-28T03:52:42.310Z,0.00
2023-02-28T03:53:42.280Z,0.00
2023-02-28T03:54:42.278Z,0.00
2023-02-28T03:55:42.275Z,0.00
2023-02-28T03:56:42.281Z,0.00
2023-02-28T03:57:42.239Z,0.00
2023-02-28T03:58:42.253Z,0.00
2023-02-28T03:59:42.245Z,0.00
2023-02-28T04:00:42.241Z,0.00
2023-02-28T04:01:42.405Z,0.00
2023-02-28T04:02:42.249Z,0.00
2023-02-28T04:03:42.252Z,0.00
2023-02-28T04:04:42.259Z,0.00
2023-02-28T04:05:42.201Z,0.00
2023-02-28T04:06:42.198Z,0.00
2023-02-28T04:07:42.224Z,0.00
2023-02-28T04:08:42.210Z,0.00
2023-02-28T04:09:42.185Z,0.00
2023-02-28T04:10:42.181Z,0.00
2023-02-28T04:11:42.162Z,0.00
2023-02-28T04:12:42.157Z,0.00
2023-02-28T04:13:42.154Z,0.00
2023-02-28T04:14:42.160Z,0.00
2023-02-28T04:15:42.152Z,0.00
2023-02-28T04:16:42.290Z,0.00
2023-02-28T04:17:42.111Z,0.00
2023-02-28T04:18:42.167Z,0.00
2023-02-28T04:19:42.108Z,0.00
2023-02-28T04:20:42.121Z,0.00
2023-02-28T04:21:42.097Z,0.00
2023-02-28T04:22:42.085Z,0.00
2023-02-28T04:23:42.082Z,0.00
2023-02-28T04:24:42.086Z,0.00
2023-02-28T04:25:42.062Z,0.00
2023-02-28T04:26:42.101Z,0.00
2023-02-28T04:27:42.073Z,0.00
2023-02-28T04:28:42.057Z,0.00
2023-02-28T04:29:42.050Z,0.00
2023-02-28T04:30:42.057Z,0.00
2023-02-28T04:31:42.084Z,0.00
2023-02-28T04:32:42.121Z,0.00
2023-02-28T04:33:42.032Z,0.00
2023-02-28T04:34:42.018Z,0.00
2023-02-28T04:35:42.044Z,0.00
2023-02-28T04:36:42.028Z,0.00
2023-02-28T04:37:42.032Z,0.00
2023-02-28T04:38:42.000Z,0.00
2023-02-28T04:39:41.976Z,0.00
2023-02-28T04:40:41.984Z,0.00
2023-02-28T04:41:41.966Z,0.00
2023-02-28T04:42:42.001Z,0.00
2023-02-28T04:43:41.958Z,0.00
2023-02-28T04:44:41.951Z,0.00
2023-02-28T04:45:41.979Z,0.00
2023-02-28T04:46:41.966Z,0.00
2023-02-28T04:47:41.932Z,0.00
2023-02-28T04:48:41.926Z,0.00
2023-02-28T04:49:41.931Z,0.00
2023-02-28T04:50:41.914Z,0.00
2023-02-28T04:51:41.923Z,0.00
2023-02-28T04:52:41.892Z,0.00
2023-02-28T04:53:41.906Z,0.00
2023-02-28T04:54:41.885Z,0.00
2023-02-28T04:55:41.872Z,0.00
2023-02-28T04:56:41.869Z,0.00
2023-02-28T04:57:41.882Z,0.00
2023-02-28T04:58:41.887Z,0.00
2023-02-28T04:59:41.878Z,0.00
2023-02-28T05:00:41.848Z,0.00
2023-02-28T05:01:41.833Z,0.00
2023-02-28T05:02:41.845Z,0.00
2023-02-28T05:03:41.828Z,0.00
2023-02-28T05:04:41.835Z,0.00
2023-02-28T05:05:41.835Z,0.00
2023-02-28T05:06:41.806Z,0.00
2023-02-28T05:07:41.809Z,0.00
2023-02-28T05:08:41.808Z,0.00
2023-02-28T05:09:41.804Z,0.00
2023-02-28T05:10:41.798Z,0.00
2023-02-28T05:11:41.781Z,0.00
2023-02-28T05:12:41.763Z,0.00
2023-02-28T05:13:41.753Z,0.00
2023-02-28T05:14:41.752Z,0.00
2023-02-28T05:15:41.739Z,0.00
2023-02-28T05:16:41.761Z,0.00
2023-02-28T05:17:41.762Z,0.00
2023-02-28T05:18:41.791Z,0.00
2023-02-28T05:19:41.717Z,0.00
2023-02-28T05:20:41.714Z,0.00
2023-02-28T05:21:41.739Z,0.00
2023-02-28T05:22:41.707Z,0.00
2023-02-28T05:23:41.704Z,0.00
2023-02-28T05:24:41.712Z,0.00
2023-02-28T05:25:41.675Z,0.00
2023-02-28T05:26:41.734Z,0.00
2023-02-28T05:27:41.674Z,0.00
2023-02-28T05:28:41.673Z,0.00
2023-02-28T05:29:41.648Z,0.00
2023-02-28T05:30:41.646Z,0.00
2023-02-28T05:31:41.677Z,0.00
2023-02-28T05:32:41.663Z,0.00
2023-02-28T05:33:41.642Z,0.00
2023-02-28T05:34:41.620Z,0.00
2023-02-28T05:35:41.649Z,0.00
2023-02-28T05:36:41.610Z,0.00
2023-02-28T05:37:41.629Z,0.00
2023-02-28T05:38:41.608Z,0.00
2023-02-28T05:39:41.642Z,0.00
2023-02-28T05:40:41.614Z,0.00
2023-02-28T05:41:41.578Z,0.00
2023-02-28T05:42:41.586Z,0.00
2023-02-28T05:43:41.562Z,0.00
2023-02-28T05:44:41.571Z,0.00
2023-02-28T05:45:41.605Z,0.00
2023-02-28T05:46:41.550Z,0.00
2023-02-28T05:47:41.556Z,0.00
2023-02-28T05:48:41.578Z,0.00
2023-02-28T05:49:41.562Z,0.00
2023-02-28T05:50:41.529Z,0.00
2023-02-28T05:51:41.530Z,0.00
2023-02-28T05:52:41.523Z,0.00
2023-02-28T05:53:41.515Z,0.00
2023-02-28T05:54:41.526Z,0.00
2023-02-28T05:55:41.488Z,0.00
2023-02-28T05:56:41.492Z,0.00
2023-02-28T05:57:41.498Z,0.00
2023-02-28T05:58:41.507Z,0.00
2023-02-28T05:59:41.493Z,0.00
2023-02-28T06:00:42.406Z,0.00
2023-02-28T06:01:41.459Z,0.00
2023-02-28T06:02:41.453Z,0.00
2023-02-28T06:03:41.470Z,0.00
2023-02-28T06:04:41.447Z,0.00
2023-02-28T06:05:41.453Z,0.00
2023-02-28T06:06:41.427Z,0.00
2023-02-28T06:07:41.419Z,0.00
2023-02-28T06:08:41.431Z,0.00
2023-02-28T06:09:41.439Z,0.00
2023-02-28T06:10:41.405Z,5.62
2023-02-28T06:11:41.402Z,5.62
2023-02-28T06:12:41.401Z,5.62
2023-02-28T06:13:41.394Z,5.62
2023-02-28T06:14:41.405Z,5.62
2023-02-28T06:15:41.395Z,5.62
2023-02-28T06:16:41.422Z,5.62
2023-02-28T06:17:41.359Z,11.25
2023-02-28T06:18:41.365Z,11.25
2023-02-28T06:19:41.348Z,11.25
2023-02-28T06:20:41.358Z,11.25
2023-02-28T06:21:41.353Z,16.88
2023-02-28T06:22:41.336Z,16.88
2023-02-28T06:23:41.323Z,22.50
2023-02-28T06:24:41.315Z,22.50
2023-02-28T06:25:41.324Z,33.75
2023-02-28T06:26:41.307Z,33.75
2023-02-28T06:27:41.305Z,33.75
2023-02-28T06:28:41.306Z,45.00
2023-02-28T06:29:41.445Z,39.38
2023-02-28T06:30:41.274Z,39.38
2023-02-28T06:31:41.339Z,39.38
2023-02-28T06:32:41.271Z,39.38
2023-02-28T06:33:41.266Z,39.38
2023-02-28T06:34:41.254Z,45.00
2023-02-28T06:35:41.302Z,50.62
2023-02-28T06:36:41.249Z,50.62
2023-02-28T06:37:41.937Z,56.25
2023-02-28T06:38:41.233Z,61.88
2023-02-28T06:39:41.221Z,67.50
2023-02-28T06:40:41.216Z,90.00
2023-02-28T06:41:53.978Z,90.00
2023-02-28T06:42:42.232Z,78.75
2023-02-28T06:43:41.189Z,61.88
2023-02-28T06:44:41.188Z,78.75
2023-02-28T06:45:41.188Z,90.00
2023-02-28T06:46:41.175Z,90.00
2023-02-28T06:47:41.195Z,118.12
2023-02-28T06:48:41.198Z,180.00
2023-02-28T06:49:41.185Z,225.00
2023-02-28T06:50:41.162Z,275.62
2023-02-28T06:51:41.152Z,281.25
2023-02-28T06:52:41.140Z,270.00
2023-02-28T06:53:41.141Z,292.50
2023-02-28T06:54:41.135Z,286.88
2023-02-28T06:55:41.137Z,309.38
2023-02-28T06:56:41.129Z,354.38
2023-02-28T06:57:41.121Z,354.38
2023-02-28T06:58:41.106Z,365.62
2023-02-28T06:59:41.091Z,376.88
2023-02-28T07:00:41.108Z,365.62
2023-02-28T07:01:41.151Z,410.62
2023-02-28T07:02:41.095Z,427.50
2023-02-28T07:03:41.102Z,466.88
2023-02-28T07:04:41.081Z,540.00
2023-02-28T07:05:41.061Z,573.75
2023-02-28T07:06:41.061Z,585.00
2023-02-28T07:07:41.044Z,545.62
2023-02-28T07:08:41.052Z,556.88
2023-02-28T07:09:41.048Z,568.12
2023-02-28T07:10:41.040Z,601.88
2023-02-28T07:11:41.022Z,607.50
2023-02-28T07:12:41.023Z,590.62
2023-02-28T07:13:41.000Z,585.00
2023-02-28T07:14:41.049Z,596.25
2023-02-28T07:15:43.942Z,618.75
2023-02-28T07:16:40.989Z,618.75
2023-02-28T07:17:40.985Z,607.50
2023-02-28T07:18:40.977Z,618.75
2023-02-28T07:19:40.970Z,630.00
2023-02-28T07:20:40.985Z,630.00
2023-02-28T07:21:40.960Z,630.00
2023-02-28T07:22:40.953Z,635.62
2023-02-28T07:23:40.942Z,624.38
2023-02-28T07:24:40.946Z,613.12
2023-02-28T07:25:40.945Z,607.50
2023-02-28T07:26:40.962Z,601.88
2023-02-28T07:27:42.263Z,624.38
2023-02-28T07:28:40.952Z,641.25
2023-02-28T07:29:40.913Z,658.12
2023-02-28T07:30:40.901Z,675.00
2023-02-28T07:31:40.922Z,675.00
2023-02-28T07:32:41.674Z,675.00
2023-02-28T07:33:40.944Z,680.62
2023-02-28T07:34:40.903Z,675.00
2023-02-28T07:35:40.906Z,652.50
2023-02-28T07:36:40.879Z,624.38
2023-02-28T07:37:40.865Z,596.25
2023-02-28T07:38:40.871Z,590.62
2023-02-28T07:39:40.887Z,607.50
2023-02-28T07:40:40.862Z,618.75
2023-02-28T07:41:40.844Z,635.62
2023-02-28T07:42:40.878Z,675.00
2023-02-28T07:43:40.835Z,686.25
2023-02-28T07:44:40.832Z,680.62
2023-02-28T07:45:40.867Z,703.12
2023-02-28T07:46:40.908Z,720.00
2023-02-28T07:47:40.813Z,708.75
2023-02-28T07:48:40.806Z,720.00
2023-02-28T07:49:40.808Z,731.25
2023-02-28T07:50:40.809Z,748.12
2023-02-28T07:51:40.813Z,759.38
2023-02-28T07:52:40.774Z,759.38
2023-02-28T07:53:40.780Z,731.25
2023-02-28T07:54:40.791Z,708.75
2023-02-28T07:55:40.776Z,691.88
2023-02-28T07:56:40.774Z,691.88
2023-02-28T07:57:40.755Z,680.62
2023-02-28T07:58:40.780Z,697.50
2023-02-28T07:59:40.747Z,742.50
2023-02-28T08:00:40.818Z,765.00
2023-02-28T08:01:40.741Z,731.25
2023-02-28T08:02:40.744Z,680.62
2023-02-28T08:03:40.732Z,658.12
2023-02-28T08:04:40.739Z,635.62
2023-02-28T08:05:40.708Z,624.38
2023-02-28T08:06:40.692Z,613.12
2023-02-28T08:07:40.704Z,607.50
2023-02-28T08:08:40.716Z,596.25
2023-02-28T08:09:40.667Z,601.88
2023-02-28T08:10:40.667Z,635.62
2023-02-28T08:11:40.657Z,658.12
2023-02-28T08:12:40.649Z,663.75
2023-02-28T08:13:40.661Z,652.50
2023-02-28T08:14:40.690Z,675.00
2023-02-28T08:15:40.635Z,669.38
2023-02-28T08:16:40.696Z,658.12
2023-02-28T08:17:40.623Z,669.38
2023-02-28T08:18:40.635Z,714.38
2023-02-28T08:19:40.624Z,742.50
2023-02-28T08:20:40.612Z,618.75
2023-02-28T08:21:40.606Z,568.12
2023-02-28T08:22:40.599Z,652.50
2023-02-28T08:23:40.607Z,624.38
2023-02-28T08:24:40.581Z,686.25
2023-02-28T08:25:40.575Z,686.25
2023-02-28T08:26:40.574Z,680.62
2023-02-28T08:27:40.547Z,686.25
2023-02-28T08:28:40.555Z,703.12
2023-02-28T08:29:40.535Z,663.75
2023-02-28T08:30:40.532Z,624.38
2023-02-28T08:31:40.582Z,646.88
2023-02-28T08:32:40.627Z,618.75
2023-02-28T08:33:40.525Z,641.25
2023-02-28T08:34:40.510Z,641.25
2023-02-28T08:35:40.560Z,691.88
2023-02-28T08:36:40.552Z,703.12
2023-02-28T08:37:40.494Z,748.12
2023-02-28T08:38:40.521Z,748.12
2023-02-28T08:39:40.474Z,765.00
2023-02-28T08:40:40.472Z,641.25
2023-02-28T08:41:40.460Z,725.62
2023-02-28T08:42:40.464Z,196.88
2023-02-28T08:43:40.503Z,798.75
2023-02-28T08:44:40.438Z,793.12
2023-02-28T08:45:40.444Z,776.25
2023-02-28T08:46:40.436Z,753.75
2023-02-28T08:47:40.451Z,781.88
2023-02-28T08:48:40.426Z,781.88
2023-02-28T08:49:40.424Z,798.75
2023-02-28T08:50:40.431Z,815.62
2023-02-28T08:51:40.396Z,810.00
2023-02-28T08:52:40.474Z,421.88
2023-02-28T08:53:40.394Z,753.75
2023-02-28T08:54:40.382Z,731.25
2023-02-28T08:55:40.370Z,731.25
2023-02-28T08:56:40.379Z,787.50
2023-02-28T08:57:40.353Z,810.00
2023-02-28T08:58:40.368Z,793.12
2023-02-28T08:59:40.345Z,832.50
2023-02-28T09:00:40.757Z,832.50
2023-02-28T09:01:40.357Z,810.00
2023-02-28T09:02:40.330Z,855.00
2023-02-28T09:03:40.393Z,900.00
2023-02-28T09:04:40.317Z,866.25
2023-02-28T09:05:40.368Z,843.75
2023-02-28T09:06:40.311Z,810.00
2023-02-28T09:07:40.290Z,810.00
2023-02-28T09:08:40.297Z,787.50
2023-02-28T09:09:40.278Z,708.75
2023-02-28T09:10:40.278Z,736.88
2023-02-28T09:11:40.333Z,838.12
2023-02-28T09:12:40.269Z,776.25
2023-02-28T09:13:40.251Z,157.50
2023-02-28T09:14:40.253Z,135.00
2023-02-28T09:15:40.262Z,421.88
2023-02-28T09:16:40.274Z,815.62
2023-02-28T09:17:40.249Z,135.00
2023-02-28T09:18:40.255Z,90.00
2023-02-28T09:19:40.230Z,90.00
2023-02-28T09:20:40.208Z,95.62
2023-02-28T09:21:40.243Z,101.25
2023-02-28T09:22:40.223Z,78.75
2023-02-28T09:23:40.196Z,67.50
2023-02-28T09:25:40.193Z,67.50
2023-02-28T09:26:47.218Z,73.12
2023-02-28T09:27:42.356Z,78.75
2023-02-28T09:28:40.202Z,90.00
2023-02-28T09:29:40.188Z,112.50
2023-02-28T09:30:40.176Z,393.75
2023-02-28T09:31:40.162Z,1563.75
2023-02-28T09:32:40.146Z,1231.88
2023-02-28T09:33:40.156Z,1158.75
2023-02-28T09:34:40.220Z,652.50
2023-02-28T09:35:40.165Z,697.50
2023-02-28T09:36:44.701Z,1248.75
2023-02-28T09:37:41.119Z,101.25
2023-02-28T09:38:40.111Z,106.88
2023-02-28T09:39:40.158Z,73.12
2023-02-28T09:40:40.116Z,95.62
2023-02-28T09:41:40.097Z,129.38
2023-02-28T09:42:40.115Z,61.88
2023-02-28T09:43:40.118Z,61.88
2023-02-28T09:44:40.121Z,67.50
2023-02-28T09:45:40.083Z,67.50
2023-02-28T09:46:40.230Z,67.50
2023-02-28T09:47:40.069Z,67.50
2023-02-28T09:48:41.190Z,78.75
2023-02-28T09:49:40.090Z,540.00
2023-02-28T09:50:40.054Z,1451.25
2023-02-28T09:51:40.067Z,146.25
2023-02-28T09:52:40.039Z,95.62
2023-02-28T09:53:40.176Z,101.25
2023-02-28T09:54:40.037Z,78.75
2023-02-28T09:55:46.605Z,84.38
2023-02-28T09:56:41.033Z,95.62
2023-02-28T09:57:40.023Z,67.50
2023-02-28T09:58:40.002Z,73.12
2023-02-28T09:59:40.011Z,78.75
2023-02-28T10:00:40.012Z,101.25
2023-02-28T10:01:40.121Z,135.00
2023-02-28T10:02:39.983Z,61.88
2023-02-28T10:03:39.987Z,67.50
2023-02-28T10:04:40.239Z,50.62
2023-02-28T10:05:39.994Z,50.62
2023-02-28T10:06:39.955Z,50.62
2023-02-28T10:07:39.979Z,50.62
2023-02-28T10:08:39.976Z,50.62
2023-02-28T10:09:39.941Z,50.62
2023-02-28T10:10:39.929Z,50.62
2023-02-28T10:11:39.931Z,50.62
2023-02-28T10:12:39.930Z,50.62
2023-02-28T10:13:39.946Z,50.62
2023-02-28T10:14:39.903Z,56.25
2023-02-28T10:15:39.990Z,56.25
2023-02-28T10:16:39.957Z,56.25
2023-02-28T10:17:49.451Z,56.25
2023-02-28T10:18:40.926Z,56.25
2023-02-28T10:19:39.873Z,56.25
2023-02-28T10:20:39.871Z,61.88
2023-02-28T10:21:39.885Z,61.88
2023-02-28T10:22:39.858Z,67.50
2023-02-28T10:23:39.850Z,73.12
2023-02-28T10:24:39.846Z,84.38
2023-02-28T10:25:39.828Z,101.25
2023-02-28T10:26:39.840Z,225.00
2023-02-28T10:27:39.808Z,213.75
2023-02-28T10:28:39.818Z,219.38
2023-02-28T10:29:39.803Z,213.75
2023-02-28T10:30:39.817Z,208.12
2023-02-28T10:31:39.826Z,135.00
2023-02-28T10:32:39.801Z,168.75
2023-02-28T10:33:39.779Z,168.75
2023-02-28T10:34:39.778Z,84.38
2023-02-28T10:35:39.769Z,90.00
2023-02-28T10:36:39.775Z,101.25
2023-02-28T10:37:39.869Z,208.12
2023-02-28T10:38:39.754Z,219.38
2023-02-28T10:39:39.752Z,225.00
2023-02-28T10:40:39.749Z,213.75
2023-02-28T10:41:39.759Z,208.12
2023-02-28T10:42:39.748Z,208.12
2023-02-28T10:43:39.743Z,196.88
2023-02-28T10:44:39.713Z,191.25
2023-02-28T10:45:39.716Z,78.75
2023-02-28T10:46:39.743Z,84.38
2023-02-28T10:47:39.718Z,78.75
2023-02-28T10:48:39.715Z,78.75
2023-02-28T10:49:39.684Z,90.00
2023-02-28T10:50:39.674Z,84.38
2023-02-28T10:51:39.681Z,202.50
2023-02-28T10:52:39.720Z,213.75
2023-02-28T10:53:57.716Z,213.75
2023-02-28T10:54:40.663Z,213.75
2023-02-28T10:55:39.641Z,213.75
2023-02-28T10:56:39.666Z,213.75
2023-02-28T10:57:39.648Z,208.12
2023-02-28T10:58:39.641Z,208.12
2023-02-28T10:59:39.634Z,213.75
2023-02-28T11:00:39.622Z,135.00
2023-02-28T11:01:39.674Z,196.88
2023-02-28T11:02:39.622Z,213.75
2023-02-28T11:03:39.583Z,213.75
2023-02-28T11:04:39.763Z,219.38
2023-02-28T11:05:39.566Z,225.00
2023-02-28T11:06:39.569Z,219.38
2023-02-28T11:07:50.490Z,219.38
2023-02-28T11:08:40.555Z,219.38
2023-02-28T11:09:39.567Z,219.38
2023-02-28T11:10:39.564Z,219.38
2023-02-28T11:11:39.532Z,219.38
2023-02-28T11:12:47.109Z,213.75
2023-02-28T11:13:40.564Z,213.75
2023-02-28T11:14:39.547Z,213.75
2023-02-28T11:15:39.553Z,213.75
2023-02-28T11:16:39.550Z,219.38
2023-02-28T11:17:39.495Z,168.75
2023-02-28T11:18:39.500Z,219.38
2023-02-28T11:19:39.497Z,225.00
2023-02-28T11:20:39.485Z,225.00
2023-02-28T11:21:39.487Z,219.38
2023-02-28T11:22:39.491Z,118.12
2023-02-28T11:23:39.487Z,112.50
2023-02-28T11:24:39.452Z,118.12
2023-02-28T11:25:39.467Z,112.50
2023-02-28T11:26:39.434Z,196.88
2023-02-28T11:27:39.473Z,213.75
2023-02-28T11:28:39.442Z,219.38
2023-02-28T11:29:39.497Z,219.38
2023-02-28T11:30:39.421Z,219.38
2023-02-28T11:31:39.466Z,213.75
2023-02-28T11:32:39.570Z,213.75
2023-02-28T11:33:39.423Z,213.75
2023-02-28T11:34:39.393Z,213.75
2023-02-28T11:35:39.427Z,202.50
2023-02-28T11:36:39.380Z,208.12
2023-02-28T11:37:39.378Z,208.12
2023-02-28T11:38:39.375Z,208.12
2023-02-28T11:39:39.363Z,202.50
2023-02-28T11:40:39.372Z,196.88
2023-02-28T11:41:41.302Z,135.00
2023-02-28T11:42:39.371Z,202.50
2023-02-28T11:43:39.352Z,208.12
2023-02-28T11:44:39.345Z,129.38
2023-02-28T11:45:39.348Z,202.50
2023-02-28T11:46:39.364Z,196.88
2023-02-28T11:47:39.372Z,196.88
2023-02-28T11:48:39.311Z,196.88
2023-02-28T11:49:46.318Z,191.25
2023-02-28T11:50:39.317Z,191.25
2023-02-28T11:51:39.291Z,191.25
2023-02-28T11:52:39.290Z,185.62
2023-02-28T11:53:39.303Z,185.62
2023-02-28T11:54:39.284Z,191.25
2023-02-28T11:55:39.277Z,185.62
2023-02-28T11:56:39.280Z,180.00
2023-02-28T11:57:39.284Z,180.00
2023-02-28T11:58:39.278Z,168.75
2023-02-28T11:59:39.249Z,168.75
2023-02-28T12:00:39.243Z,174.38
2023-02-28T12:01:39.266Z,174.38
2023-02-28T12:02:39.254Z,168.75
2023-02-28T12:03:39.234Z,168.75
2023-02-28T12:04:39.268Z,168.75
2023-02-28T12:05:39.238Z,168.75
2023-02-28T12:06:39.225Z,168.75
2023-02-28T12:07:39.236Z,168.75
2023-02-28T12:08:39.211Z,163.12
2023-02-28T12:09:39.212Z,163.12
2023-02-28T12:10:39.235Z,163.12
2023-02-28T12:11:39.221Z,163.12
2023-02-28T12:12:39.208Z,146.25
2023-02-28T12:13:39.184Z,129.38
2023-02-28T12:14:39.196Z,84.38
2023-02-28T12:15:39.196Z,123.75
2023-02-28T12:16:39.225Z,106.88
2023-02-28T12:17:39.169Z,151.88
2023-02-28T12:18:39.179Z,151.88
2023-02-28T12:19:39.167Z,140.62
2023-02-28T12:20:39.146Z,151.88
2023-02-28T12:21:39.166Z,151.88
2023-02-28T12:22:39.177Z,146.25
2023-02-28T12:23:39.129Z,146.25
2023-02-28T12:24:39.144Z,146.25
2023-02-28T12:25:39.115Z,146.25
2023-02-28T12:26:39.118Z,146.25
2023-02-28T12:27:39.155Z,146.25
2023-02-28T12:28:39.125Z,140.62
2023-02-28T12:29:39.085Z,140.62
2023-02-28T12:30:39.091Z,140.62
2023-02-28T12:31:39.156Z,135.00
2023-02-28T12:32:39.161Z,135.00
2023-02-28T12:33:39.095Z,135.00
2023-02-28T12:34:39.071Z,135.00
2023-02-28T12:35:39.093Z,135.00
2023-02-28T12:36:39.058Z,135.00
2023-02-28T12:37:39.046Z,135.00
2023-02-28T12:38:39.084Z,135.00
2023-02-28T12:39:49.780Z,129.38
2023-02-28T12:40:40.063Z,129.38
2023-02-28T12:41:39.033Z,129.38
2023-02-28T12:42:39.026Z,129.38
2023-02-28T12:43:39.060Z,129.38
2023-02-28T12:44:39.006Z,129.38
2023-02-28T12:45:39.107Z,123.75
2023-02-28T12:46:39.118Z,123.75
2023-02-28T12:47:39.008Z,123.75
2023-02-28T12:48:39.029Z,123.75
2023-02-28T12:49:39.003Z,123.75
2023-02-28T12:50:38.982Z,123.75
2023-02-28T12:51:38.977Z,123.75
2023-02-28T12:52:38.978Z,118.12
2023-02-28T12:53:38.982Z,118.12
2023-02-28T12:54:38.971Z,118.12
2023-02-28T12:55:38.947Z,118.12